Aeroporto :
LOGIN :

Iscrizione | Disclaimer

   EN    FR    IT 

 










Sommario :    VFR   VFR Marginale   IFR   IFR Intensivo   IFR Molto Intensivo
Visibilità : 
Base nubi : 
>= 8 km
>= 3000ft
5 / 8 km
1000 / 3000 ft
1500m / 5 km
500 / 1000 ft
800 / 1500m
200 / 500 ft
< 800m
< 200 ft
Simboli :   Temporali  Nebbia  Neve Forte  Precipitazioni Forti  Vento > 20 kt
SIGMETs :   Varie  Temporali  Ghiacco  Turbolenza  Onda orograficha  Ceneri Vulcaniche






- Altitudine del aeroporto : 36 ft
- Codice IATA : RIX


EVRA - Riga

ULTIMO METAR :
  • 130820Z 15009KT 9999 -DZ BKN005 OVC015 02/01 Q1003 R18/510195 NOSIG

METARs OBSOLETI :
  • 130750Z 15007KT 120V180 6000 -DZ OVC005 02/01 Q1003 R18/510195 NOSIG
  • 130720Z 15006KT 5000 BR OVC005 02/01 Q1003 R18/510195 NOSIG
  • 130650Z 14004KT 5000 BR OVC005 01/00 Q1003 R18/510195 TEMPO 3000 OVC004
  • 130620Z 17007KT 7000 OVC006 01/00 Q1003 R18/510195 TEMPO 3000 BR OVC004
  • 130550Z 16009KT 8000 OVC007 01/M00 Q1003 R18/510195 TEMPO 3000 BR OVC004

TAF TAF EVRA
Valido dal 13 a 09 ore il 14 a 09 ore UTC


130804Z 1309/1409 14010KT 6000 OVC005
TEMPO 1309/1311 3000 BR OVC002
BECMG 1311/1313 OVC012
TEMPO 1322/1403 3000 -RA BR OVC008
TEMPO 1406/1409 15015G26KT



MetMap, La meteo Aeronautica in un colpo d'occhio ! - Copyright ORBIFLY Dicembre 2007 - Disclaimer

ORBIFLY MET'MAP TEAM :

Programmazione e sviluppo : Alexandra Zaïnal
Concezione : Baudouin d'Aumeries
Aiuto per la programmazione : Marc-Olivier Méhu
Supporto tecnico e logistico : Manuel Goepfert
Aiuto per la traduzione : Arnaldo La Scala

Contatto : metmap@orbifly.com




FONTI E CREDITI :

   NOAA